createdAt,value
2022-10-29T00:01:57.285Z,14.04
2022-10-29T00:04:25.352Z,14.33
2022-10-29T00:06:53.258Z,14.33
2022-10-29T00:09:21.133Z,14.49
2022-10-29T00:11:48.871Z,14.56
2022-10-29T00:14:18.077Z,14.55
2022-10-29T00:16:47.238Z,14.58
2022-10-29T00:19:15.119Z,14.10
2022-10-29T00:21:42.868Z,14.56
2022-10-29T00:24:11.127Z,14.59
2022-10-29T00:26:39.146Z,14.51
2022-10-29T00:29:07.084Z,14.44
2022-10-29T00:31:35.263Z,14.42
2022-10-29T00:34:04.662Z,14.37
2022-10-29T00:36:32.425Z,14.34
2022-10-29T00:39:00.243Z,14.32
2022-10-29T00:41:30.842Z,14.31
2022-10-29T00:44:28.393Z,14.38
2022-10-29T00:47:02.605Z,14.41
2022-10-29T00:49:32.842Z,14.37
2022-10-29T00:52:02.124Z,14.48
2022-10-29T00:54:31.595Z,14.48
2022-10-29T00:57:04.437Z,14.35
2022-10-29T00:59:33.180Z,14.46
2022-10-29T01:02:01.396Z,14.44
2022-10-29T01:04:31.755Z,14.32
2022-10-29T01:06:59.489Z,14.38
2022-10-29T01:09:28.616Z,14.42
2022-10-29T01:12:13.860Z,14.37
2022-10-29T01:14:53.245Z,14.42
2022-10-29T01:17:31.284Z,14.41
2022-10-29T01:20:52.691Z,14.31
2022-10-29T01:23:48.297Z,14.38
2022-10-29T01:26:48.940Z,14.35
2022-10-29T01:29:36.782Z,14.32
2022-10-29T01:32:12.022Z,14.25
2022-10-29T01:34:44.577Z,14.31
2022-10-29T01:37:20.969Z,14.27
2022-10-29T01:39:55.444Z,14.20
2022-10-29T01:42:29.652Z,14.44
2022-10-29T01:45:05.730Z,14.48
2022-10-29T01:47:41.415Z,14.43
2022-10-29T01:50:13.018Z,14.37
2022-10-29T01:52:41.534Z,14.37
2022-10-29T01:55:10.130Z,14.25
2022-10-29T01:57:39.974Z,14.35
2022-10-29T02:00:11.040Z,14.34
2022-10-29T02:02:52.474Z,14.26
2022-10-29T02:05:29.820Z,14.18
2022-10-29T02:08:04.755Z,14.24
2022-10-29T02:10:40.038Z,14.43
2022-10-29T02:13:11.756Z,14.43
2022-10-29T02:15:45.399Z,14.33
2022-10-29T02:18:15.315Z,14.39
2022-10-29T02:20:44.358Z,14.39
2022-10-29T02:23:12.261Z,14.06
2022-10-29T02:25:40.163Z,14.21
2022-10-29T02:28:09.584Z,13.52
2022-10-29T02:30:37.505Z,14.07
2022-10-29T02:33:05.502Z,13.87
2022-10-29T02:35:34.786Z,13.99
2022-10-29T02:38:02.629Z,13.95
2022-10-29T02:40:30.474Z,13.35
2022-10-29T02:42:58.644Z,14.02
2022-10-29T02:45:26.549Z,14.11
2022-10-29T02:47:54.756Z,13.90
2022-10-29T02:50:22.788Z,13.93
2022-10-29T02:52:51.939Z,13.94
2022-10-29T02:55:19.792Z,13.87
2022-10-29T02:57:48.101Z,13.83
2022-10-29T03:00:16.855Z,13.84
2022-10-29T03:02:44.918Z,13.81
2022-10-29T03:05:12.911Z,13.74
2022-10-29T03:07:40.816Z,13.51
2022-10-29T03:10:10.843Z,13.69
2022-10-29T03:12:38.721Z,13.74
2022-10-29T03:15:07.564Z,13.72
2022-10-29T03:17:35.379Z,13.59
2022-10-29T03:20:03.254Z,13.77
2022-10-29T03:22:31.044Z,13.82
2022-10-29T03:24:58.861Z,13.79
2022-10-29T03:27:28.024Z,13.43
2022-10-29T03:29:55.871Z,13.76
2022-10-29T03:32:23.648Z,13.78
2022-10-29T03:34:54.787Z,13.81
2022-10-29T03:37:25.388Z,13.77
2022-10-29T03:39:53.217Z,13.69
2022-10-29T03:42:20.988Z,13.69
2022-10-29T03:44:50.185Z,13.69
2022-10-29T03:47:18.011Z,12.47
2022-10-29T03:49:45.793Z,13.70
2022-10-29T03:52:13.669Z,13.70
2022-10-29T03:54:41.483Z,13.60
2022-10-29T03:57:09.602Z,13.59
2022-10-29T03:59:37.795Z,13.45
2022-10-29T04:02:07.172Z,13.60
2022-10-29T04:04:35.117Z,13.41
2022-10-29T04:07:02.959Z,13.55
2022-10-29T04:09:30.802Z,13.33
2022-10-29T04:11:58.585Z,13.47
2022-10-29T04:14:26.655Z,13.46
2022-10-29T04:16:54.485Z,13.32
2022-10-29T04:19:23.712Z,13.38
2022-10-29T04:30:16.281Z,13.29
2022-10-29T04:32:44.125Z,13.24
2022-10-29T04:35:13.354Z,13.17
2022-10-29T04:37:41.365Z,13.27
2022-10-29T04:40:10.397Z,13.30
2022-10-29T04:42:38.356Z,13.21
2022-10-29T04:45:07.344Z,13.14
2022-10-29T04:47:35.377Z,13.22
2022-10-29T04:50:03.168Z,13.17
2022-10-29T04:52:32.547Z,13.16
2022-10-29T04:55:00.347Z,13.17
2022-10-29T04:57:28.259Z,13.33
2022-10-29T04:59:56.137Z,13.34
2022-10-29T05:02:23.964Z,13.24
2022-10-29T05:04:51.915Z,13.21
2022-10-29T05:07:19.836Z,13.19
2022-10-29T05:09:49.032Z,13.10
2022-10-29T05:12:16.826Z,12.84
2022-10-29T05:14:44.690Z,13.08
2022-10-29T05:17:12.527Z,13.05
2022-10-29T05:19:40.434Z,13.01
2022-10-29T05:22:08.344Z,12.81
2022-10-29T05:24:36.198Z,12.84
2022-10-29T05:27:06.643Z,12.86
2022-10-29T05:29:34.803Z,12.78
2022-10-29T05:32:02.628Z,12.66
2022-10-29T05:34:30.484Z,12.78
2022-10-29T05:36:58.374Z,12.23
2022-10-29T05:39:26.210Z,12.52
2022-10-29T05:41:54.098Z,12.75
2022-10-29T05:44:23.195Z,12.66
2022-10-29T05:46:51.072Z,12.73
2022-10-29T05:49:18.892Z,12.70
2022-10-29T05:51:46.745Z,12.73
2022-10-29T05:54:14.594Z,12.70
2022-10-29T05:56:42.668Z,12.60
2022-10-29T05:59:10.554Z,12.57
2022-10-29T06:01:39.936Z,12.30
2022-10-29T06:04:08.025Z,12.54
2022-10-29T06:06:35.876Z,12.32
2022-10-29T06:09:03.800Z,12.51
2022-10-29T06:11:31.701Z,12.62
2022-10-29T06:13:59.590Z,12.73
2022-10-29T06:16:27.379Z,12.79
2022-10-29T06:18:56.575Z,12.75
2022-10-29T06:21:24.390Z,12.75
2022-10-29T06:23:54.060Z,12.52
2022-10-29T06:26:22.497Z,12.84
2022-10-29T06:28:50.451Z,12.68
2022-10-29T06:31:18.294Z,12.88
2022-10-29T06:33:46.117Z,12.88
2022-10-29T06:36:15.442Z,12.96
2022-10-29T06:38:43.497Z,12.93
2022-10-29T06:41:11.433Z,12.82
2022-10-29T06:43:39.380Z,12.90
2022-10-29T06:46:07.371Z,12.89
2022-10-29T06:48:35.416Z,12.80
2022-10-29T06:51:03.222Z,12.58
2022-10-29T06:53:32.523Z,12.68
2022-10-29T06:56:00.709Z,12.78
2022-10-29T06:58:28.584Z,12.83
2022-10-29T07:00:59.358Z,12.63
2022-10-29T07:03:27.205Z,12.87
2022-10-29T07:05:58.822Z,12.80
2022-10-29T07:08:27.376Z,12.42
2022-10-29T07:10:56.679Z,12.81
2022-10-29T07:13:24.585Z,12.82
2022-10-29T07:15:52.468Z,12.99
2022-10-29T07:18:20.460Z,12.92
2022-10-29T07:20:48.354Z,13.07
2022-10-29T07:23:16.215Z,12.54
2022-10-29T07:25:44.394Z,13.08
2022-10-29T07:28:16.198Z,12.93
2022-10-29T07:30:44.617Z,12.71
2022-10-29T07:33:12.632Z,13.29
2022-10-29T07:35:40.711Z,13.39
2022-10-29T07:38:11.290Z,13.27
2022-10-29T07:40:40.971Z,13.27
2022-10-29T07:43:10.336Z,13.21
2022-10-29T07:45:39.564Z,13.32
2022-10-29T07:48:08.659Z,12.99
2022-10-29T07:50:38.265Z,13.40
2022-10-29T07:53:07.682Z,13.42
2022-10-29T07:55:35.929Z,13.46
2022-10-29T07:58:06.250Z,13.67
2022-10-29T08:00:36.224Z,13.81
2022-10-29T08:03:06.192Z,13.58
2022-10-29T08:05:34.322Z,13.86
2022-10-29T08:08:02.309Z,13.94
2022-10-29T08:10:31.595Z,14.08
2022-10-29T08:13:01.718Z,14.14
2022-10-29T08:15:31.822Z,14.21
2022-10-29T08:18:01.597Z,13.93
2022-10-29T08:20:30.993Z,14.28
2022-10-29T08:23:00.977Z,13.99
2022-10-29T08:25:29.373Z,14.28
2022-10-29T08:28:01.467Z,14.38
2022-10-29T08:30:30.232Z,14.48
2022-10-29T08:32:58.763Z,14.54
2022-10-29T08:35:27.329Z,14.57
2022-10-29T08:37:56.799Z,14.61
2022-10-29T08:40:31.126Z,14.81
2022-10-29T08:43:20.429Z,14.88
2022-10-29T08:45:49.704Z,14.93
2022-10-29T08:48:28.005Z,14.99
2022-10-29T08:51:04.638Z,15.13
2022-10-29T08:53:38.207Z,15.31
2022-10-29T08:56:12.315Z,15.40
2022-10-29T08:58:49.258Z,15.44
2022-10-29T09:01:19.889Z,15.26
2022-10-29T09:03:47.808Z,15.44
2022-10-29T09:06:21.726Z,15.21
2022-10-29T09:09:06.626Z,15.55
2022-10-29T09:11:48.583Z,15.55
2022-10-29T09:14:51.669Z,15.61
2022-10-29T09:17:30.650Z,15.61
2022-10-29T09:20:14.195Z,15.68
2022-10-29T09:22:57.088Z,15.71
2022-10-29T09:25:31.328Z,15.30
2022-10-29T09:28:12.831Z,15.71
2022-10-29T09:30:48.800Z,15.84
2022-10-29T09:33:21.261Z,15.89
2022-10-29T09:35:54.309Z,15.87
2022-10-29T09:38:25.202Z,16.16
2022-10-29T09:40:58.691Z,16.21
2022-10-29T09:43:48.516Z,16.19
2022-10-29T09:46:25.882Z,16.20
2022-10-29T09:49:02.957Z,16.47
2022-10-29T09:51:38.390Z,16.51
2022-10-29T09:54:06.752Z,16.68
2022-10-29T09:56:36.098Z,16.78
2022-10-29T09:59:18.138Z,16.97
2022-10-29T10:01:47.726Z,17.09
2022-10-29T10:04:23.571Z,17.24
2022-10-29T10:07:07.227Z,17.51
2022-10-29T10:09:52.978Z,17.69
2022-10-29T10:12:26.094Z,17.84
2022-10-29T10:15:05.920Z,18.05
2022-10-29T10:17:56.085Z,18.21
2022-10-29T10:20:30.587Z,18.43
2022-10-29T10:22:58.786Z,18.45
2022-10-29T10:25:35.403Z,18.54
2022-10-29T10:28:24.026Z,18.72
2022-10-29T10:31:11.703Z,18.92
2022-10-29T10:33:51.176Z,19.13
2022-10-29T10:36:21.885Z,19.22
2022-10-29T10:38:52.136Z,19.34
2022-10-29T10:41:25.256Z,19.50
2022-10-29T10:43:58.936Z,19.34
2022-10-29T10:46:30.389Z,19.01
2022-10-29T10:49:04.628Z,19.31
2022-10-29T10:51:34.403Z,18.66
2022-10-29T10:54:05.188Z,19.28
2022-10-29T10:56:34.511Z,19.35
2022-10-29T10:59:10.725Z,19.42
2022-10-29T11:01:43.381Z,19.29
2022-10-29T11:04:17.347Z,19.45
2022-10-29T11:06:49.669Z,19.55
2022-10-29T11:09:25.148Z,19.33
2022-10-29T11:12:01.527Z,19.60
2022-10-29T11:14:36.611Z,19.65
2022-10-29T11:17:09.433Z,19.65
2022-10-29T11:19:42.224Z,19.83
2022-10-29T11:22:21.119Z,19.79
2022-10-29T11:24:58.126Z,19.74
2022-10-29T11:27:35.510Z,20.08
2022-10-29T11:30:07.771Z,20.13
2022-10-29T11:32:47.557Z,20.16
2022-10-29T11:35:21.094Z,20.10
2022-10-29T11:37:56.961Z,20.10
2022-10-29T11:40:38.669Z,20.03
2022-10-29T11:43:11.751Z,20.08
2022-10-29T11:45:52.667Z,20.10
2022-10-29T11:48:33.808Z,20.04
2022-10-29T11:51:07.343Z,20.03
2022-10-29T11:53:56.606Z,19.81
2022-10-29T11:56:36.426Z,19.94
2022-10-29T11:59:12.645Z,19.86
2022-10-29T12:01:53.124Z,19.78
2022-10-29T12:04:41.067Z,19.77
2022-10-29T12:07:30.062Z,19.58
2022-10-29T12:10:09.893Z,19.52
2022-10-29T12:12:46.203Z,19.55
2022-10-29T12:15:23.319Z,19.52
2022-10-29T12:18:02.374Z,19.60
2022-10-29T12:20:38.185Z,19.60
2022-10-29T12:23:18.822Z,19.48
2022-10-29T12:25:59.923Z,19.36
2022-10-29T12:28:36.732Z,19.35
2022-10-29T12:31:15.060Z,19.48
2022-10-29T12:33:51.157Z,19.58
2022-10-29T12:36:29.701Z,19.60
2022-10-29T12:38:58.956Z,19.67
2022-10-29T12:41:32.645Z,19.70
2022-10-29T12:44:09.427Z,19.64
2022-10-29T12:46:42.008Z,19.64
2022-10-29T12:49:17.657Z,19.71
2022-10-29T12:51:51.512Z,19.66
2022-10-29T12:54:40.966Z,19.52
2022-10-29T12:57:28.715Z,19.49
2022-10-29T12:59:56.724Z,19.31
2022-10-29T13:02:45.128Z,19.16
2022-10-29T13:05:37.164Z,19.33
2022-10-29T13:08:20.233Z,19.38
2022-10-29T13:10:57.218Z,19.46
2022-10-29T13:13:51.163Z,19.51
2022-10-29T13:16:22.314Z,19.56
2022-10-29T13:19:14.037Z,19.47
2022-10-29T13:22:01.862Z,19.51
2022-10-29T13:24:31.121Z,19.53
2022-10-29T13:27:02.097Z,19.51
2022-10-29T13:29:51.046Z,19.67
2022-10-29T13:32:35.907Z,19.83
2022-10-29T13:35:06.909Z,19.86
2022-10-29T13:37:51.634Z,19.71
2022-10-29T13:40:42.484Z,19.76
2022-10-29T13:43:16.283Z,19.74
2022-10-29T13:45:48.423Z,19.83
2022-10-29T13:48:25.413Z,19.86
2022-10-29T13:50:56.028Z,19.86
2022-10-29T13:53:35.442Z,19.86
2022-10-29T13:56:03.683Z,19.80
2022-10-29T13:58:35.763Z,19.80
2022-10-29T14:01:10.281Z,19.77
2022-10-29T14:03:48.017Z,19.75
2022-10-29T14:06:21.695Z,19.70
2022-10-29T14:08:56.998Z,19.68
2022-10-29T14:11:28.343Z,19.66
2022-10-29T14:13:59.636Z,19.50
2022-10-29T14:16:32.530Z,19.53
2022-10-29T14:19:14.897Z,19.53
2022-10-29T14:21:42.928Z,19.50
2022-10-29T14:24:16.116Z,19.43
2022-10-29T14:26:45.941Z,19.28
2022-10-29T14:29:15.176Z,19.34
2022-10-29T14:31:43.011Z,19.40
2022-10-29T14:34:26.455Z,19.43
2022-10-29T14:36:59.048Z,19.46
2022-10-29T14:39:37.078Z,19.20
2022-10-29T14:42:20.588Z,18.74
2022-10-29T14:44:52.097Z,19.52
2022-10-29T14:47:30.472Z,19.43
2022-10-29T14:50:03.645Z,19.41
2022-10-29T14:52:34.715Z,19.28
2022-10-29T14:55:08.895Z,19.26
2022-10-29T14:57:42.037Z,19.13
2022-10-29T15:00:23.957Z,18.61
2022-10-29T15:02:53.320Z,18.91
2022-10-29T15:05:26.402Z,18.87
2022-10-29T15:08:06.696Z,18.75
2022-10-29T15:10:46.831Z,18.71
2022-10-29T15:13:31.423Z,18.62
2022-10-29T15:16:03.345Z,18.53
2022-10-29T15:18:33.729Z,18.52
2022-10-29T15:21:03.347Z,18.51
2022-10-29T15:23:35.402Z,18.42
2022-10-29T15:26:08.270Z,18.32
2022-10-29T15:28:40.907Z,18.33
2022-10-29T15:31:17.691Z,18.37
2022-10-29T15:33:46.404Z,18.27
2022-10-29T15:36:14.622Z,18.11
2022-10-29T15:39:20.518Z,18.23
2022-10-29T15:41:51.763Z,18.22
2022-10-29T15:44:34.840Z,18.08
2022-10-29T15:47:04.677Z,18.03
2022-10-29T15:49:33.083Z,17.96
2022-10-29T15:52:01.640Z,17.93
2022-10-29T15:54:30.054Z,17.86
2022-10-29T15:56:59.462Z,17.38
2022-10-29T15:59:27.690Z,17.65
2022-10-29T16:01:55.732Z,17.69
2022-10-29T16:04:23.738Z,17.65
2022-10-29T16:06:51.820Z,17.54
2022-10-29T16:09:21.852Z,17.43
2022-10-29T16:11:50.836Z,17.24
2022-10-29T16:14:20.289Z,17.26
2022-10-29T16:16:48.274Z,17.27
2022-10-29T16:19:16.180Z,17.16
2022-10-29T16:21:44.045Z,17.12
2022-10-29T16:24:15.448Z,17.06
2022-10-29T16:26:43.725Z,17.02
2022-10-29T16:29:11.633Z,17.01
2022-10-29T16:31:40.841Z,16.98
2022-10-29T16:34:14.240Z,16.94
2022-10-29T16:36:42.298Z,17.13
2022-10-29T16:39:10.127Z,17.16
2022-10-29T16:41:37.965Z,17.16
2022-10-29T16:44:06.151Z,17.12
2022-10-29T16:46:33.961Z,17.06
2022-10-29T16:49:03.249Z,16.85
2022-10-29T16:51:31.260Z,16.56
2022-10-29T16:53:59.206Z,16.61
2022-10-29T16:56:26.964Z,16.60
2022-10-29T16:59:01.799Z,16.50
2022-10-29T17:01:30.264Z,16.53
2022-10-29T17:03:58.468Z,16.31
2022-10-29T17:06:27.817Z,16.37
2022-10-29T17:08:55.672Z,16.47
2022-10-29T17:11:23.594Z,16.38
2022-10-29T17:13:51.961Z,16.35
2022-10-29T17:16:19.994Z,16.30
2022-10-29T17:18:50.731Z,16.35
2022-10-29T17:21:19.116Z,16.34
2022-10-29T17:23:48.455Z,16.18
2022-10-29T17:26:16.636Z,16.18
2022-10-29T17:28:44.571Z,16.23
2022-10-29T17:31:12.451Z,16.19
2022-10-29T17:33:41.276Z,15.80
2022-10-29T17:36:12.936Z,15.92
2022-10-29T17:38:41.311Z,15.85
2022-10-29T17:41:10.780Z,16.14
2022-10-29T17:43:38.724Z,15.98
2022-10-29T17:46:07.069Z,15.82
2022-10-29T17:48:36.122Z,15.81
2022-10-29T17:51:04.603Z,15.85
2022-10-29T17:53:32.985Z,15.48
2022-10-29T17:56:01.496Z,15.68
2022-10-29T17:58:31.468Z,15.72
2022-10-29T18:01:04.977Z,15.62
2022-10-29T18:03:32.944Z,15.64
2022-10-29T18:06:02.113Z,15.58
2022-10-29T18:08:30.478Z,15.63
2022-10-29T18:11:03.675Z,15.75
2022-10-29T18:13:34.724Z,15.58
2022-10-29T18:16:03.250Z,15.52
2022-10-29T18:18:42.929Z,15.55
2022-10-29T18:21:24.683Z,15.44
2022-10-29T18:23:53.160Z,15.50
2022-10-29T18:26:23.774Z,15.29
2022-10-29T18:28:53.534Z,15.54
2022-10-29T18:31:22.109Z,15.43
2022-10-29T18:33:50.093Z,15.36
2022-10-29T18:36:18.082Z,15.43
2022-10-29T18:38:51.151Z,15.41
2022-10-29T18:41:19.069Z,15.40
2022-10-29T18:43:47.058Z,15.33
2022-10-29T18:46:16.537Z,15.33
2022-10-29T18:48:46.956Z,15.48
2022-10-29T18:51:17.106Z,15.44
2022-10-29T18:53:44.956Z,15.28
2022-10-29T18:56:15.026Z,15.36
2022-10-29T18:58:43.642Z,15.38
2022-10-29T19:01:13.011Z,15.39
2022-10-29T19:03:42.943Z,15.41
2022-10-29T19:06:13.199Z,15.33
2022-10-29T19:08:41.588Z,15.47
2022-10-29T19:11:12.747Z,15.40
2022-10-29T19:13:41.047Z,15.33
2022-10-29T19:16:11.189Z,15.25
2022-10-29T19:18:40.758Z,15.24
2022-10-29T19:21:12.447Z,15.31
2022-10-29T19:23:41.065Z,15.30
2022-10-29T19:26:11.136Z,15.32
2022-10-29T19:28:40.418Z,15.33
2022-10-29T19:31:09.873Z,15.13
2022-10-29T19:33:37.976Z,15.18
2022-10-29T19:36:08.118Z,15.38
2022-10-29T19:38:37.562Z,15.30
2022-10-29T19:41:05.459Z,15.15
2022-10-29T19:43:33.862Z,15.17
2022-10-29T19:46:01.893Z,15.10
2022-10-29T19:48:29.833Z,15.10
2022-10-29T19:50:57.697Z,15.16
2022-10-29T19:53:26.688Z,15.23
2022-10-29T19:55:56.180Z,15.10
2022-10-29T19:58:27.278Z,15.13
2022-10-29T20:00:56.073Z,15.03
2022-10-29T20:03:23.854Z,15.07
2022-10-29T20:05:56.694Z,15.02
2022-10-29T20:08:24.582Z,15.18
2022-10-29T20:10:56.872Z,15.09
2022-10-29T20:13:25.047Z,15.14
2022-10-29T20:15:53.523Z,15.12
2022-10-29T20:18:21.673Z,15.04
2022-10-29T20:20:54.905Z,15.03
2022-10-29T20:23:23.096Z,15.03
2022-10-29T20:25:51.195Z,15.02
2022-10-29T20:28:20.444Z,15.20
2022-10-29T20:30:48.346Z,15.22
2022-10-29T20:33:16.469Z,15.02
2022-10-29T20:35:44.595Z,15.04
2022-10-29T20:38:12.370Z,15.00
2022-10-29T20:40:40.297Z,14.75
2022-10-29T20:43:08.177Z,15.00
2022-10-29T20:45:37.433Z,14.89
2022-10-29T20:48:05.889Z,14.88
2022-10-29T20:50:34.839Z,14.85
2022-10-29T20:53:02.735Z,14.72
2022-10-29T20:55:30.690Z,14.70
2022-10-29T20:57:58.807Z,14.64
2022-10-29T21:00:26.974Z,14.19
2022-10-29T21:02:56.253Z,14.66
2022-10-29T21:05:24.092Z,14.51
2022-10-29T21:07:52.074Z,14.58
2022-10-29T21:10:19.936Z,14.72
2022-10-29T21:12:47.708Z,14.70
2022-10-29T21:15:15.806Z,14.67
2022-10-29T21:17:43.716Z,14.54
2022-10-29T21:20:13.095Z,14.65
2022-10-29T21:22:40.944Z,14.58
2022-10-29T21:25:09.695Z,14.47
2022-10-29T21:27:37.560Z,14.41
2022-10-29T21:30:06.310Z,14.57
2022-10-29T21:32:34.200Z,14.66
2022-10-29T21:35:02.002Z,14.68
2022-10-29T21:37:31.244Z,14.59
2022-10-29T21:40:01.749Z,14.54
2022-10-29T21:42:33.060Z,14.47
2022-10-29T21:45:00.884Z,14.46
2022-10-29T21:47:28.727Z,14.42
2022-10-29T21:49:56.556Z,14.13
2022-10-29T21:52:24.582Z,13.95
2022-10-29T21:54:53.840Z,14.41
2022-10-29T21:57:21.709Z,14.38
2022-10-29T21:59:49.528Z,14.41
2022-10-29T22:02:17.431Z,14.40
2022-10-29T22:04:45.322Z,14.21
2022-10-29T22:07:13.286Z,14.51
2022-10-29T22:09:41.151Z,14.24
2022-10-29T22:12:10.350Z,14.30
2022-10-29T22:14:38.354Z,14.28
2022-10-29T22:17:06.141Z,14.24
2022-10-29T22:19:33.938Z,14.17
2022-10-29T22:22:01.789Z,14.22
2022-10-29T22:24:29.601Z,14.34
2022-10-29T22:26:57.546Z,14.35
2022-10-29T22:29:26.720Z,14.35
2022-10-29T22:31:54.746Z,14.35
2022-10-29T22:34:22.654Z,14.31
2022-10-29T22:36:51.619Z,14.24
2022-10-29T22:39:19.544Z,14.26
2022-10-29T22:41:47.630Z,14.40
2022-10-29T22:44:15.405Z,14.46
2022-10-29T22:46:44.639Z,14.45
2022-10-29T22:49:12.956Z,14.41
2022-10-29T22:51:40.946Z,14.41
2022-10-29T22:54:09.044Z,14.42
2022-10-29T22:56:38.974Z,14.55
2022-10-29T22:59:07.471Z,14.70
2022-10-29T23:01:40.333Z,14.68
2022-10-29T23:04:13.276Z,14.57
2022-10-29T23:06:41.234Z,14.69
2022-10-29T23:09:09.099Z,14.52
2022-10-29T23:11:39.198Z,14.77
2022-10-29T23:14:07.420Z,14.70
2022-10-29T23:16:40.675Z,14.75
2022-10-29T23:19:08.600Z,14.67
2022-10-29T23:21:37.790Z,14.58
2022-10-29T23:24:06.251Z,14.64
2022-10-29T23:26:34.100Z,14.67
2022-10-29T23:29:01.967Z,14.51
2022-10-29T23:31:29.950Z,14.47
2022-10-29T23:33:58.768Z,14.39
2022-10-29T23:36:28.021Z,14.25
2022-10-29T23:38:58.765Z,14.54
2022-10-29T23:41:26.878Z,14.43
2022-10-29T23:43:54.852Z,14.51
2022-10-29T23:46:22.988Z,14.58
2022-10-29T23:48:51.145Z,14.52
2022-10-29T23:51:19.677Z,14.29
2022-10-29T23:53:50.381Z,14.32
2022-10-29T23:56:22.559Z,14.07
2022-10-29T23:58:50.319Z,14.03
